Auburn, New York
Current Conditions -  °F | °C
As of 9:54 PM on Tuesday 21 Oct 2014 (Local Time) from KSYR Reporting Station
Light Rain Light Rain  
Wind Chill: 52°   Ceiling: 500
Heat Index: 52°   Visibility: 5mi
Dew Point: 50°   Wind: 5mph
Humidity: 94%   Direction: 20°NNE
Pressure: 30.01"   Gusts: NA
Location:  42.93°N, 76.56°W
Report Text: KSYR 220154Z 02004KT 5SM -RA BR BKN005 OVC009 11/10 A3001 RMK SLP160 T01110101
Loading
Personal Weather Stations






























Interactive Weather Map
Tropical Storm Tracking
New forecast layout! Learn more

10-Day Weather Forecast

Advertisements
Track Severe Weather on mobile